Time;durP1;ratioP1;P1;durP2;ratioP2;P2;SDS_P1;SDS_P2;PMS_P1;PMS_P2;Temp;Humidity;BMP_temperature;BMP_pressure;BME280_temperature;BME280_humidity;BME280_pressure;Samples;Min_cycle;Max_cycle;Signal;HPM_P1;HPM_P2
2022/07/25 00:01:02;;;;;;;7.10;5.32;;;21.70;99.90;;;;;;5072402;28;20048;-75
2022/07/25 00:03:28;;;;;;;8.80;6.13;;;21.60;99.90;;;;;;5074909;28;20383;-75
2022/07/25 00:05:54;;;;;;;8.40;5.60;;;21.50;99.90;;;;;;5075424;28;20228;-74
2022/07/25 00:08:20;;;;;;;9.57;6.97;;;21.50;99.90;;;;;;5075446;28;20051;-75
2022/07/25 00:10:46;;;;;;;12.38;7.50;;;21.50;99.90;;;;;;5076073;28;20040;-76
2022/07/25 00:13:11;;;;;;;10.00;7.28;;;21.70;99.90;;;;;;5073938;28;20052;-72
2022/07/25 00:15:37;;;;;;;9.57;6.80;;;21.70;99.90;;;;;;5093990;28;20043;-75
2022/07/25 00:18:03;;;;;;;10.52;7.18;;;21.80;99.90;;;;;;5075126;28;20093;-73
2022/07/25 00:20:29;;;;;;;10.00;7.50;;;21.80;99.90;;;;;;5093602;28;20056;-72
2022/07/25 00:22:54;;;;;;;9.90;7.63;;;21.80;99.90;;;;;;5075955;28;20243;-73
2022/07/25 00:25:20;;;;;;;9.63;7.43;;;21.80;99.90;;;;;;5069657;28;20514;-73
2022/07/25 00:27:46;;;;;;;10.07;7.93;;;21.80;99.90;;;;;;5075824;28;20056;-71
2022/07/25 00:30:12;;;;;;;10.38;8.15;;;21.90;99.90;;;;;;5090796;28;20040;-75
2022/07/25 00:32:37;;;;;;;10.45;7.55;;;21.90;99.90;;;;;;5041573;28;20051;-72
2022/07/25 00:35:03;;;;;;;11.43;8.38;;;21.80;99.90;;;;;;5093607;28;20131;-71
2022/07/25 00:37:29;;;;;;;11.07;8.52;;;21.70;99.90;;;;;;5075227;28;20646;-72
2022/07/25 00:39:55;;;;;;;11.32;8.30;;;21.70;99.90;;;;;;5093661;28;20499;-71
2022/07/25 00:42:22;;;;;;;9.93;7.97;;;21.70;99.90;;;;;;5093254;28;20043;-72
2022/07/25 00:44:49;;;;;;;10.00;7.82;;;21.60;99.90;;;;;;5075251;28;20048;-74
2022/07/25 00:47:15;;;;;;;11.45;8.25;;;21.70;99.90;;;;;;5075149;28;20108;-74
2022/07/25 00:49:41;;;;;;;9.27;7.88;;;21.70;99.90;;;;;;5060847;28;20086;-72
2022/07/25 00:52:07;;;;;;;12.23;8.18;;;21.80;99.90;;;;;;5067290;28;20045;-73
2022/07/25 00:54:33;;;;;;;10.20;8.00;;;21.80;99.90;;;;;;5069111;28;20044;-71
2022/07/25 00:56:58;;;;;;;9.07;7.78;;;21.90;99.90;;;;;;5075492;28;20044;-72
2022/07/25 00:59:24;;;;;;;10.82;8.50;;;21.90;99.90;;;;;;5038655;28;20047;-71
2022/07/25 01:01:50;;;;;;;10.13;8.50;;;21.90;99.90;;;;;;5073407;28;20035;-71
2022/07/25 01:04:16;;;;;;;10.60;8.02;;;21.90;99.90;;;;;;5073875;28;20048;-74
2022/07/25 01:06:42;;;;;;;11.07;8.30;;;21.90;99.90;;;;;;5074777;28;20080;-72
2022/07/25 01:09:08;;;;;;;9.55;7.38;;;21.90;99.90;;;;;;5074923;28;20509;-73
2022/07/25 01:11:34;;;;;;;10.70;8.20;;;21.90;99.90;;;;;;5074797;28;20048;-80
2022/07/25 01:14:00;;;;;;;11.48;7.88;;;22.00;99.90;;;;;;5078929;28;20122;-73
2022/07/25 01:16:25;;;;;;;10.40;7.93;;;22.00;99.90;;;;;;5093399;28;20441;-71
2022/07/25 01:18:51;;;;;;;11.40;8.63;;;22.00;99.90;;;;;;5073452;28;20051;-73
2022/07/25 01:21:17;;;;;;;10.55;8.70;;;21.90;99.90;;;;;;5079008;28;20090;-71
2022/07/25 01:23:42;;;;;;;10.73;8.52;;;21.80;99.90;;;;;;5074531;28;20044;-77
2022/07/25 01:26:08;;;;;;;11.18;8.77;;;21.80;99.90;;;;;;5092859;28;20040;-73
2022/07/25 01:28:34;;;;;;;11.38;9.60;;;21.80;99.90;;;;;;5057954;28;20117;-73
2022/07/25 01:31:00;;;;;;;12.25;9.30;;;21.80;99.90;;;;;;5074954;28;20498;-72
2022/07/25 01:33:25;;;;;;;11.52;9.10;;;21.70;99.90;;;;;;5057104;28;20052;-71
2022/07/25 01:35:51;;;;;;;12.88;9.40;;;21.70;99.90;;;;;;5074430;28;20047;-73
2022/07/25 01:38:17;;;;;;;12.90;9.98;;;21.60;99.90;;;;;;5092312;28;20036;-71
2022/07/25 01:40:43;;;;;;;11.07;9.55;;;21.50;99.90;;;;;;5057735;28;20052;-73
2022/07/25 01:43:10;;;;;;;12.80;9.88;;;21.50;99.90;;;;;;5074464;28;20052;-74
2022/07/25 01:45:36;;;;;;;12.05;9.68;;;21.50;99.90;;;;;;5075307;28;20052;-72
2022/07/25 01:48:02;;;;;;;10.82;9.48;;;21.50;99.90;;;;;;5070599;28;20060;-72
2022/07/25 01:50:27;;;;;;;12.55;9.77;;;21.40;99.90;;;;;;5074913;28;20132;-74
2022/07/25 01:52:53;;;;;;;12.68;9.55;;;21.40;99.90;;;;;;5073835;28;20082;-74
2022/07/25 01:55:19;;;;;;;10.63;9.52;;;21.40;99.90;;;;;;5070917;28;20098;-75
2022/07/25 01:57:45;;;;;;;11.35;9.38;;;21.40;99.90;;;;;;5073629;28;20048;-75
2022/07/25 02:00:13;;;;;;;11.90;9.80;;;21.40;99.90;;;;;;5074630;28;20493;-71
2022/07/25 02:02:43;;;;;;;11.55;9.77;;;21.30;99.90;;;;;;5072671;28;20451;-73
2022/07/25 02:05:10;;;;;;;12.63;9.82;;;21.30;99.90;;;;;;5074817;28;20498;-73
2022/07/25 02:07:36;;;;;;;12.02;9.75;;;21.30;99.90;;;;;;5077976;28;20451;-76
2022/07/25 02:10:05;;;;;;;11.60;8.90;;;21.30;99.90;;;;;;5064953;28;20153;-73
2022/07/25 02:12:31;;;;;;;11.20;9.55;;;21.30;99.90;;;;;;5075258;28;20049;-73
2022/07/25 02:14:57;;;;;;;11.23;9.50;;;21.30;99.90;;;;;;5094364;28;20505;-71
2022/07/25 02:17:23;;;;;;;11.13;9.07;;;21.30;99.90;;;;;;5077854;28;20407;-74
2022/07/25 02:19:48;;;;;;;12.95;10.10;;;21.20;99.90;;;;;;5081716;28;20052;-73
2022/07/25 02:22:14;;;;;;;11.98;10.10;;;21.20;99.90;;;;;;5078033;28;20044;-72
2022/07/25 02:24:40;;;;;;;11.38;9.38;;;21.20;99.90;;;;;;5092760;28;20048;-73
2022/07/25 02:27:06;;;;;;;10.93;9.68;;;21.20;99.90;;;;;;5078262;28;20040;-72
2022/07/25 02:29:32;;;;;;;12.48;9.95;;;21.10;99.90;;;;;;5078197;28;20090;-72
2022/07/25 02:31:58;;;;;;;12.90;10.27;;;21.10;99.90;;;;;;5077554;28;20064;-75
2022/07/25 02:34:24;;;;;;;12.13;9.68;;;21.10;99.90;;;;;;5077201;28;20479;-73
2022/07/25 02:36:49;;;;;;;13.27;10.32;;;21.10;99.90;;;;;;5077895;28;20047;-73
2022/07/25 02:39:15;;;;;;;12.57;10.65;;;21.00;99.90;;;;;;5095506;28;20485;-72
2022/07/25 02:41:42;;;;;;;13.02;10.32;;;21.00;99.90;;;;;;5061248;28;20052;-72
2022/07/25 02:44:07;;;;;;;13.15;10.10;;;21.00;99.90;;;;;;5077142;28;20051;-71
2022/07/25 02:46:33;;;;;;;12.50;10.48;;;20.90;99.90;;;;;;5061091;28;20036;-73
2022/07/25 02:48:59;;;;;;;13.63;10.88;;;20.90;99.90;;;;;;5094773;28;20048;-72
2022/07/25 02:51:25;;;;;;;12.07;9.85;;;20.90;99.90;;;;;;5095030;28;20115;-75
2022/07/25 02:53:51;;;;;;;12.57;10.18;;;20.80;99.90;;;;;;5077048;28;20494;-73
2022/07/25 02:56:16;;;;;;;10.85;9.68;;;20.80;99.90;;;;;;5095150;28;20036;-75
2022/07/25 02:58:43;;;;;;;11.70;10.20;;;20.80;99.90;;;;;;5077046;28;20040;-72
2022/07/25 03:01:08;;;;;;;12.68;9.90;;;20.80;99.90;;;;;;5060990;28;20057;-70
2022/07/25 03:03:34;;;;;;;12.27;10.27;;;20.80;99.90;;;;;;5094993;28;20502;-73
2022/07/25 03:06:00;;;;;;;12.60;10.18;;;20.80;99.90;;;;;;5061151;28;20047;-72
2022/07/25 03:08:26;;;;;;;11.48;10.10;;;20.80;99.90;;;;;;5059731;28;20048;-74
2022/07/25 03:10:52;;;;;;;11.32;9.77;;;20.80;99.90;;;;;;5060867;28;20467;-73
2022/07/25 03:13:18;;;;;;;11.15;9.65;;;20.80;99.90;;;;;;5059126;28;20055;-73
2022/07/25 03:15:43;;;;;;;10.88;9.77;;;20.80;99.90;;;;;;5084514;28;20394;-74
2022/07/25 03:18:09;;;;;;;12.15;9.57;;;20.80;99.90;;;;;;5075385;28;20044;-74
2022/07/25 03:20:35;;;;;;;13.85;10.98;;;20.80;99.90;;;;;;5094998;28;20047;-73
2022/07/25 03:23:00;;;;;;;11.23;9.45;;;20.80;99.90;;;;;;5076963;28;20079;-74
2022/07/25 03:25:26;;;;;;;11.68;10.13;;;20.70;99.90;;;;;;5056869;28;20045;-74
2022/07/25 03:27:52;;;;;;;10.73;9.05;;;20.70;99.90;;;;;;5067998;28;20490;-72
2022/07/25 03:30:17;;;;;;;11.00;9.80;;;20.60;99.90;;;;;;5091277;28;20067;-73
2022/07/25 03:32:43;;;;;;;11.60;9.48;;;20.60;99.90;;;;;;5073888;28;20056;-74
2022/07/25 03:35:09;;;;;;;12.30;10.30;;;20.60;99.90;;;;;;5072533;28;20048;-73
2022/07/25 03:37:34;;;;;;;12.32;10.20;;;20.60;99.90;;;;;;5076588;28;20115;-72
2022/07/25 03:40:00;;;;;;;11.40;9.88;;;20.50;99.90;;;;;;5095126;28;20074;-72
2022/07/25 03:42:26;;;;;;;11.90;9.52;;;20.50;99.90;;;;;;5076446;28;20177;-72
2022/07/25 03:44:52;;;;;;;10.82;9.48;;;20.40;99.90;;;;;;5076378;28;20101;-73
2022/07/25 03:47:17;;;;;;;11.73;9.82;;;20.40;99.90;;;;;;5075714;28;20052;-73
2022/07/25 03:49:43;;;;;;;11.90;9.82;;;20.40;99.90;;;;;;5062421;28;20098;-73
2022/07/25 03:52:09;;;;;;;12.10;9.85;;;20.40;99.90;;;;;;5076679;28;20048;-74
2022/07/25 03:54:34;;;;;;;13.75;10.02;;;20.40;99.90;;;;;;5074730;28;20368;-72
2022/07/25 03:57:00;;;;;;;12.30;10.00;;;20.50;99.90;;;;;;5094341;28;20117;-73
2022/07/25 03:59:26;;;;;;;13.82;11.38;;;20.40;99.90;;;;;;5076317;28;20093;-72
2022/07/25 04:01:51;;;;;;;13.05;10.30;;;20.50;99.90;;;;;;5093979;28;20067;-73
2022/07/25 04:04:18;;;;;;;15.02;9.98;;;20.50;99.90;;;;;;5058895;28;20044;-73
2022/07/25 04:06:45;;;;;;;12.68;10.20;;;20.50;99.90;;;;;;5059405;28;20068;-73
2022/07/25 04:09:12;;;;;;;12.35;10.25;;;20.50;99.90;;;;;;5072964;28;20048;-73
2022/07/25 04:11:38;;;;;;;13.43;10.50;;;20.60;99.90;;;;;;5072137;28;20059;-73
2022/07/25 04:14:04;;;;;;;13.02;10.65;;;20.50;99.90;;;;;;5093994;28;20475;-74
2022/07/25 04:16:30;;;;;;;13.32;9.93;;;20.60;99.90;;;;;;5076364;28;22015;-72
2022/07/25 04:18:56;;;;;;;12.77;9.98;;;20.60;99.90;;;;;;5072204;28;20139;-74
2022/07/25 04:21:22;;;;;;;14.55;10.75;;;20.60;99.90;;;;;;5059613;28;20115;-73
2022/07/25 04:23:48;;;;;;;14.52;10.57;;;20.70;99.90;;;;;;5074998;28;20052;-73
2022/07/25 04:26:15;;;;;;;13.05;10.55;;;20.70;99.90;;;;;;5076316;28;20077;-72
2022/07/25 04:28:41;;;;;;;13.98;10.88;;;20.70;99.90;;;;;;5075446;28;20056;-73
2022/07/25 04:31:07;;;;;;;14.75;10.55;;;20.80;99.90;;;;;;5075264;28;20040;-75
2022/07/25 04:33:36;;;;;;;15.55;10.15;;;20.80;99.90;;;;;;5092998;28;20048;-73
2022/07/25 04:36:01;;;;;;;13.30;10.88;;;20.80;99.90;;;;;;5075870;28;20143;-73
2022/07/25 04:38:27;;;;;;;12.75;10.00;;;20.80;99.90;;;;;;5072766;28;20169;-72
2022/07/25 04:40:53;;;;;;;13.20;10.93;;;20.90;99.90;;;;;;5093212;28;20081;-75
2022/07/25 04:43:19;;;;;;;15.23;10.85;;;20.90;99.90;;;;;;5059162;28;20044;-74
2022/07/25 04:45:45;;;;;;;14.30;10.35;;;20.90;99.90;;;;;;5092978;28;20043;-73
2022/07/25 04:48:11;;;;;;;13.40;11.10;;;21.00;99.90;;;;;;5093103;28;20078;-73
2022/07/25 04:50:36;;;;;;;11.35;10.15;;;21.10;99.90;;;;;;5075595;28;20105;-74
2022/07/25 04:53:03;;;;;;;13.80;10.70;;;21.10;99.90;;;;;;5074658;28;20134;-73
2022/07/25 04:55:31;;;;;;;14.07;10.38;;;21.20;99.90;;;;;;5059021;28;20058;-73
2022/07/25 04:57:57;;;;;;;14.02;10.68;;;21.20;99.90;;;;;;5074186;28;20059;-74
2022/07/25 05:00:23;;;;;;;14.68;10.50;;;21.30;99.90;;;;;;5075937;28;20437;-73
2022/07/25 05:02:50;;;;;;;12.82;11.02;;;21.40;99.90;;;;;;5077375;28;20048;-73
2022/07/25 05:05:16;;;;;;;11.95;10.30;;;21.50;99.90;;;;;;5059023;28;20040;-73
2022/07/25 05:07:43;;;;;;;13.80;10.43;;;21.50;99.90;;;;;;5073353;28;20057;-74
2022/07/25 05:10:09;;;;;;;13.43;10.52;;;21.50;99.90;;;;;;5075322;28;20036;-73
2022/07/25 05:12:35;;;;;;;12.63;10.50;;;21.60;99.90;;;;;;5075035;28;20043;-73
2022/07/25 05:15:01;;;;;;;14.65;11.15;;;21.60;99.90;;;;;;5066782;28;20127;-73
2022/07/25 05:17:27;;;;;;;12.55;10.95;;;21.70;99.90;;;;;;5074131;28;20047;-74
2022/07/25 05:19:53;;;;;;;12.40;10.05;;;21.80;99.90;;;;;;5053397;28;20040;-74
2022/07/25 05:22:18;;;;;;;12.57;10.57;;;21.90;99.90;;;;;;5074829;28;20043;-74
2022/07/25 05:24:44;;;;;;;13.35;10.60;;;22.00;99.90;;;;;;5074995;28;20169;-75
2022/07/25 05:27:10;;;;;;;12.93;9.70;;;22.30;99.90;;;;;;5058169;28;20104;-75
2022/07/25 05:29:35;;;;;;;11.65;9.50;;;22.60;99.90;;;;;;5058431;28;20051;-72
2022/07/25 05:32:01;;;;;;;12.63;9.60;;;22.90;99.90;;;;;;5092373;28;20044;-72
2022/07/25 05:34:27;;;;;;;12.43;8.65;;;23.10;99.90;;;;;;5091813;28;20056;-73
2022/07/25 05:36:52;;;;;;;11.65;9.18;;;23.50;99.90;;;;;;5092194;28;20066;-74
2022/07/25 05:39:18;;;;;;;11.57;8.70;;;23.90;99.90;;;;;;5092309;28;20147;-74
2022/07/25 05:41:44;;;;;;;11.10;7.55;;;24.20;99.90;;;;;;5075271;28;20052;-76
2022/07/25 05:44:09;;;;;;;12.35;8.10;;;24.60;99.90;;;;;;5052249;28;20040;-73
2022/07/25 05:46:35;;;;;;;10.85;7.82;;;25.00;99.10;;;;;;5081179;28;20043;-74
2022/07/25 05:49:01;;;;;;;11.02;8.05;;;25.40;98.50;;;;;;5062618;28;20075;-74
2022/07/25 05:51:27;;;;;;;10.85;8.05;;;25.90;97.30;;;;;;5080738;28;20466;-74
2022/07/25 05:53:53;;;;;;;10.35;8.80;;;26.00;96.40;;;;;;5081146;28;20043;-72
2022/07/25 05:56:19;;;;;;;10.35;7.95;;;26.30;95.40;;;;;;5081623;28;20036;-73
2022/07/25 05:58:45;;;;;;;9.75;8.32;;;26.30;95.10;;;;;;5063968;28;20409;-73
2022/07/25 06:01:11;;;;;;;10.73;8.43;;;26.20;94.30;;;;;;5081011;28;20152;-73
2022/07/25 06:03:37;;;;;;;10.05;7.78;;;26.50;94.90;;;;;;5064753;28;20066;-75
2022/07/25 06:06:03;;;;;;;11.63;8.25;;;26.70;94.10;;;;;;5096950;28;20035;-74
2022/07/25 06:08:29;;;;;;;10.25;8.38;;;26.60;93.20;;;;;;5080260;28;20066;-72
2022/07/25 06:10:57;;;;;;;9.60;8.45;;;26.80;94.00;;;;;;5081471;28;20482;-73
2022/07/25 06:13:24;;;;;;;9.80;8.45;;;27.00;93.20;;;;;;5080542;28;20082;-73
2022/07/25 06:15:49;;;;;;;12.48;8.18;;;27.20;92.40;;;;;;5099158;28;20051;-74
2022/07/25 06:18:15;;;;;;;9.65;8.52;;;27.50;92.50;;;;;;5098269;28;20493;-73
2022/07/25 06:20:41;;;;;;;12.05;8.68;;;27.40;91.40;;;;;;5099033;28;20044;-74
2022/07/25 06:23:07;;;;;;;9.98;7.80;;;27.10;91.30;;;;;;5077815;28;20040;-73
2022/07/25 06:25:32;;;;;;;10.32;8.10;;;26.90;91.40;;;;;;5092999;28;20076;-73
2022/07/25 06:27:58;;;;;;;9.93;7.82;;;26.70;92.30;;;;;;5080588;28;20113;-73
2022/07/25 06:30:24;;;;;;;10.48;7.80;;;26.60;92.80;;;;;;5098869;28;20083;-72
2022/07/25 06:32:49;;;;;;;9.35;7.93;;;26.80;92.80;;;;;;5098098;28;20053;-75
2022/07/25 06:35:16;;;;;;;11.25;8.10;;;26.90;92.40;;;;;;5064887;28;20391;-75
2022/07/25 06:37:42;;;;;;;10.10;8.05;;;27.10;91.90;;;;;;5063399;28;20076;-73
2022/07/25 06:40:08;;;;;;;11.65;8.20;;;27.00;91.40;;;;;;5081164;28;20079;-75
2022/07/25 06:42:41;;;;;;;32.70;9.52;;;26.80;91.60;;;;;;5097199;28;20051;-74
2022/07/25 06:45:09;;;;;;;13.25;8.88;;;26.70;91.70;;;;;;5078304;28;20048;-74
2022/07/25 06:47:36;;;;;;;11.25;9.45;;;26.50;92.40;;;;;;5063354;28;20055;-75
2022/07/25 06:50:03;;;;;;;17.38;8.93;;;26.20;92.50;;;;;;5077401;28;20121;-74
2022/07/25 06:52:28;;;;;;;12.07;8.80;;;26.00;92.90;;;;;;5096391;28;20048;-73
2022/07/25 06:54:54;;;;;;;11.73;8.98;;;26.10;94.20;;;;;;5066224;28;20480;-73
2022/07/25 06:57:20;;;;;;;9.60;7.45;;;26.60;94.10;;;;;;5095324;28;20057;-75
2022/07/25 06:59:45;;;;;;;11.23;8.40;;;27.10;93.50;;;;;;5095668;28;20056;-73
2022/07/25 07:02:14;;;;;;;11.52;8.30;;;27.50;92.30;;;;;;5060652;28;20048;-77
2022/07/25 07:04:39;;;;;;;11.18;8.07;;;27.80;91.00;;;;;;5095523;28;20051;-72
2022/07/25 07:07:05;;;;;;;11.68;7.90;;;28.00;90.90;;;;;;5060987;28;20494;-73
2022/07/25 07:09:31;;;;;;;10.93;8.07;;;28.40;90.40;;;;;;5076570;28;20044;-79
2022/07/25 07:11:57;;;;;;;10.02;8.43;;;28.90;88.90;;;;;;5077544;28;20051;-73
2022/07/25 07:14:23;;;;;;;12.32;8.88;;;29.00;87.00;;;;;;5074943;28;20044;-74
2022/07/25 07:16:49;;;;;;;11.73;8.65;;;29.20;84.40;;;;;;5068431;28;20094;-74
2022/07/25 07:19:14;;;;;;;10.55;7.88;;;29.40;83.90;;;;;;5076032;28;20098;-75
2022/07/25 07:21:41;;;;;;;15.55;8.60;;;29.50;83.30;;;;;;5094161;28;20399;-76
2022/07/25 07:24:07;;;;;;;17.27;8.93;;;29.40;81.90;;;;;;5077384;28;20421;-73
2022/07/25 07:26:33;;;;;;;11.68;9.85;;;29.60;82.20;;;;;;5076673;28;20149;-75
2022/07/25 07:28:59;;;;;;;12.00;8.85;;;29.70;79.80;;;;;;5095248;28;20527;-73
2022/07/25 07:31:25;;;;;;;11.38;9.48;;;29.90;78.20;;;;;;5094978;28;20414;-73
2022/07/25 07:33:51;;;;;;;11.77;9.00;;;30.00;78.80;;;;;;5058436;28;20071;-75
2022/07/25 07:36:17;;;;;;;10.48;8.93;;;30.10;79.00;;;;;;5093347;28;20119;-76
2022/07/25 07:38:47;;;;;;;15.13;10.07;;;30.20;77.10;;;;;;5058867;28;20044;-73
2022/07/25 07:41:13;;;;;;;12.07;10.77;;;30.30;76.30;;;;;;5060185;28;20056;-73
2022/07/25 07:43:39;;;;;;;10.77;9.13;;;30.40;74.00;;;;;;5076310;28;20453;-76
2022/07/25 07:46:05;;;;;;;12.23;10.20;;;30.40;76.90;;;;;;5061891;28;20078;-74
2022/07/25 07:48:32;;;;;;;12.10;9.85;;;30.50;75.40;;;;;;5058786;28;20043;-75
2022/07/25 07:50:59;;;;;;;10.50;9.38;;;30.60;74.30;;;;;;5076255;28;20109;-74
2022/07/25 07:55:42;;;;;;;11.95;9.50;;;30.20;75.00;;;;;;5094757;28;20078;-74
2022/07/25 07:56:11;;;;;;;12.77;8.73;;;29.90;75.30;;;;;;5093107;28;20055;-76
2022/07/25 07:58:37;;;;;;;12.88;9.35;;;30.20;75.70;;;;;;5076089;28;20044;-74
2022/07/25 08:01:02;;;;;;;10.77;8.90;;;30.50;75.60;;;;;;5073176;28;20479;-75
2022/07/25 08:03:28;;;;;;;11.57;8.50;;;30.60;75.50;;;;;;5075283;28;20116;-73
2022/07/25 08:05:54;;;;;;;13.60;9.30;;;30.70;74.50;;;;;;5094326;28;20504;-75
2022/07/25 08:08:20;;;;;;;10.20;8.98;;;30.60;72.60;;;;;;5072083;28;20048;-76
2022/07/25 08:10:47;;;;;;;11.98;9.55;;;30.50;71.80;;;;;;5093930;28;20040;-78
2022/07/25 08:13:14;;;;;;;12.52;9.00;;;30.30;72.10;;;;;;5092783;28;20493;-78
2022/07/25 08:15:41;;;;;;;12.55;9.68;;;30.30;72.80;;;;;;5093819;28;20070;-77
2022/07/25 08:18:07;;;;;;;9.77;8.13;;;30.40;71.40;;;;;;5075452;28;20043;-75
2022/07/25 08:20:32;;;;;;;13.23;10.52;;;30.20;73.60;;;;;;5094273;28;20047;-77
2022/07/25 08:22:58;;;;;;;13.30;9.82;;;30.50;72.30;;;;;;5059204;28;20456;-76
2022/07/25 08:25:24;;;;;;;11.20;8.68;;;30.50;71.00;;;;;;5076070;28;20072;-73
2022/07/25 08:27:52;;;;;;;11.93;9.10;;;30.30;71.50;;;;;;5075719;28;20079;-75
2022/07/25 08:30:18;;;;;;;11.52;8.30;;;30.10;70.50;;;;;;5074592;28;20063;-74
2022/07/25 08:33:02;;;;;;;10.23;8.60;;;29.90;72.60;;;;;;5091923;28;20464;-74
2022/07/25 08:35:29;;;;;;;12.15;8.93;;;29.90;72.90;;;;;;5074961;28;20399;-75
2022/07/25 08:37:56;;;;;;;10.45;9.18;;;29.70;73.40;;;;;;5068714;28;20464;-76
2022/07/25 08:40:23;;;;;;;12.38;10.15;;;29.60;73.70;;;;;;5090169;28;20044;-74
2022/07/25 08:42:50;;;;;;;13.77;10.18;;;29.40;73.80;;;;;;5071806;28;20078;-73
2022/07/25 08:45:18;;;;;;;14.75;10.40;;;29.30;75.70;;;;;;5093752;28;20077;-73
2022/07/25 08:47:45;;;;;;;13.35;10.63;;;29.10;75.60;;;;;;5073237;28;20497;-75
2022/07/25 08:50:14;;;;;;;11.82;10.35;;;28.80;76.80;;;;;;5093451;28;20058;-76
2022/07/25 08:52:46;;;;;;;12.27;10.45;;;28.50;77.30;;;;;;5092331;28;20100;-75
2022/07/25 08:55:14;;;;;;;13.25;11.25;;;28.20;78.10;;;;;;5073268;28;20119;-74
2022/07/25 08:57:42;;;;;;;14.32;10.20;;;27.90;79.10;;;;;;5073653;28;20048;-76
2022/07/25 09:00:13;;;;;;;14.35;9.50;;;27.60;80.20;;;;;;5092819;28;20056;-74
2022/07/25 09:02:38;;;;;;;12.03;8.90;;;27.70;80.60;;;;;;5071627;28;20052;-74
2022/07/25 09:05:04;;;;;;;11.27;8.48;;;27.80;80.40;;;;;;5092117;28;20074;-74
2022/07/25 09:07:32;;;;;;;12.50;8.57;;;28.00;80.70;;;;;;5089065;28;20185;-74
2022/07/25 09:10:10;;;;;;;12.15;8.43;;;28.00;79.10;;;;;;5049471;28;20060;-74
2022/07/25 09:12:36;;;;;;;10.15;8.00;;;28.00;78.00;;;;;;5042038;28;20599;-75
2022/07/25 09:15:02;;;;;;;11.75;8.52;;;27.90;78.10;;;;;;5063051;28;20055;-82
2022/07/25 09:17:27;;;;;;;9.68;7.70;;;27.70;77.30;;;;;;5078131;28;20093;-76
2022/07/25 09:19:55;;;;;;;10.23;8.05;;;27.40;77.50;;;;;;5041365;28;20044;-75
2022/07/25 09:22:21;;;;;;;10.52;7.30;;;27.30;79.30;;;;;;5095817;28;20046;-75
2022/07/25 09:24:47;;;;;;;11.13;7.07;;;27.30;80.30;;;;;;5091845;28;20454;-75
2022/07/25 09:27:14;;;;;;;9.43;6.60;;;27.20;79.80;;;;;;5077474;28;20479;-74
2022/07/25 09:29:41;;;;;;;8.43;5.65;;;27.10;80.20;;;;;;5097064;28;20096;-79
2022/07/25 09:32:18;;;;;;;8.88;5.43;;;27.20;79.60;;;;;;5079900;28;20062;-75
2022/07/25 09:34:46;;;;;;;7.90;5.60;;;27.10;78.90;;;;;;5097451;28;20052;-76
2022/07/25 09:37:14;;;;;;;9.70;5.07;;;26.90;79.50;;;;;;5081599;28;20401;-74
2022/07/25 09:39:41;;;;;;;9.48;5.07;;;26.80;80.10;;;;;;5081772;28;20109;-75
2022/07/25 09:42:22;;;;;;;7.07;4.97;;;26.60;80.90;;;;;;5082843;28;20047;-76
2022/07/25 09:45:02;;;;;;;8.33;4.53;;;26.50;81.90;;;;;;5106715;28;20112;-74
2022/07/25 09:47:29;;;;;;;6.85;4.75;;;26.50;83.30;;;;;;5079637;28;20050;-77
2022/07/25 09:49:56;;;;;;;7.32;5.10;;;26.50;83.80;;;;;;5080273;28;20048;-74
2022/07/25 09:52:22;;;;;;;8.20;4.95;;;26.60;84.30;;;;;;5064588;28;20105;-76
2022/07/25 09:54:48;;;;;;;8.80;5.22;;;26.60;84.50;;;;;;5077596;28;20059;-75
2022/07/25 09:57:15;;;;;;;8.02;5.00;;;26.70;84.70;;;;;;5095428;28;20044;-75
2022/07/25 09:59:41;;;;;;;8.13;5.15;;;26.70;84.70;;;;;;5096759;28;20462;-75
2022/07/25 10:02:08;;;;;;;8.98;5.25;;;26.70;86.30;;;;;;5094087;28;20036;-76
2022/07/25 10:05:11;;;;;;;8.15;4.90;;;26.70;86.50;;;;;;5078550;28;20055;-78
2022/07/25 10:07:38;;;;;;;7.00;4.78;;;26.90;84.90;;;;;;5075216;28;20044;-75
2022/07/25 10:10:04;;;;;;;7.13;4.28;;;26.80;85.80;;;;;;5095596;28;20506;-74
2022/07/25 10:12:30;;;;;;;6.00;3.75;;;26.80;85.20;;;;;;5077062;28;20076;-73
2022/07/25 10:15:10;;;;;;;5.60;3.50;;;26.90;82.80;;;;;;5078182;28;20125;-73
2022/07/25 10:17:38;;;;;;;6.30;3.30;;;27.00;81.00;;;;;;5055295;28;20513;-75
2022/07/25 10:20:06;;;;;;;6.00;2.80;;;26.90;80.10;;;;;;5094110;28;20094;-75
2022/07/25 10:22:39;;;;;;;5.00;2.80;;;26.70;78.50;;;;;;5083347;28;20044;-75
2022/07/25 10:25:14;;;;;;;5.57;3.10;;;26.60;79.30;;;;;;5088878;28;20580;-75
2022/07/25 10:27:51;;;;;;;6.20;2.97;;;26.40;80.20;;;;;;5083777;28;20047;-75
2022/07/25 10:30:22;;;;;;;6.57;3.05;;;26.30;82.00;;;;;;5086035;28;20051;-77
2022/07/25 10:32:58;;;;;;;6.88;2.95;;;26.20;82.90;;;;;;5085069;28;20067;-76
2022/07/25 10:35:26;;;;;;;5.78;2.90;;;26.10;85.00;;;;;;5079119;28;20106;-73
2022/07/25 10:37:55;;;;;;;5.18;2.50;;;26.10;85.40;;;;;;5099995;28;20040;-75
2022/07/25 10:40:31;;;;;;;8.05;2.40;;;26.10;84.40;;;;;;5094899;28;20052;-74
2022/07/25 10:43:08;;;;;;;5.47;2.33;;;26.10;82.40;;;;;;5087399;28;20387;-77
2022/07/25 10:45:43;;;;;;;4.90;2.40;;;26.20;82.30;;;;;;5088333;28;20059;-77
2022/07/25 10:48:40;;;;;;;4.93;2.20;;;26.50;83.70;;;;;;5092233;28;20047;-73
2022/07/25 10:51:06;;;;;;;6.15;2.25;;;26.90;84.50;;;;;;5104831;28;20074;-76
2022/07/25 10:53:39;;;;;;;4.30;2.00;;;27.20;79.90;;;;;;5107178;28;20078;-75
2022/07/25 10:56:22;;;;;;;6.80;2.22;;;27.30;80.90;;;;;;5107874;28;20044;-77
2022/07/25 10:58:56;;;;;;;4.57;2.17;;;27.50;78.70;;;;;;5088833;28;20108;-76
2022/07/25 11:01:24;;;;;;;4.60;2.03;;;27.60;78.80;;;;;;5090670;28;20093;-75
2022/07/25 11:03:52;;;;;;;4.40;2.00;;;27.60;77.50;;;;;;5106017;28;20051;-74
2022/07/25 11:06:28;;;;;;;4.70;1.85;;;27.60;78.80;;;;;;5087369;28;20044;-75
2022/07/25 11:08:56;;;;;;;4.65;1.85;;;27.40;79.00;;;;;;5103190;28;20047;-81
2022/07/25 11:11:36;;;;;;;3.97;1.63;;;27.40;78.80;;;;;;5096750;28;20055;-79
2022/07/25 11:14:03;;;;;;;4.70;1.80;;;27.20;79.80;;;;;;5080049;28;20043;-75
2022/07/25 11:16:28;;;;;;;4.13;1.50;;;27.10;80.90;;;;;;5100363;28;20505;-76
2022/07/25 11:18:54;;;;;;;5.22;1.60;;;27.30;80.60;;;;;;5076302;28;20130;-75
2022/07/25 11:21:20;;;;;;;4.78;1.50;;;27.30;79.90;;;;;;5084749;28;20432;-76
2022/07/25 11:23:52;;;;;;;3.67;1.33;;;27.10;79.70;;;;;;5102791;28;20086;-76
2022/07/25 11:26:18;;;;;;;5.00;1.50;;;26.90;80.10;;;;;;5085310;28;20443;-72
2022/07/25 11:28:49;;;;;;;4.40;1.33;;;26.50;82.00;;;;;;5086169;28;20043;-74
2022/07/25 11:31:17;;;;;;;4.53;1.35;;;26.30;84.10;;;;;;5067520;28;20039;-73
2022/07/25 11:33:47;;;;;;;6.28;1.60;;;25.80;86.10;;;;;;5104237;28;20085;-73
2022/07/25 11:36:13;;;;;;;5.15;1.42;;;25.70;88.00;;;;;;5084467;28;20101;-74
2022/07/25 11:38:40;;;;;;;4.03;1.40;;;25.50;90.80;;;;;;5085668;28;20059;-73
2022/07/25 11:41:06;;;;;;;5.45;1.30;;;25.50;92.30;;;;;;5080649;28;20044;-74
2022/07/25 11:43:32;;;;;;;6.05;1.45;;;25.50;93.40;;;;;;5100542;28;20035;-72
2022/07/25 11:46:06;;;;;;;4.63;1.60;;;25.50;93.60;;;;;;5092699;28;20360;-73
2022/07/25 11:48:38;;;;;;;5.63;1.50;;;25.60;93.20;;;;;;5086028;28;20046;-73
2022/07/25 11:51:12;;;;;;;5.50;1.60;;;25.80;94.30;;;;;;5066317;28;20040;-75
2022/07/25 11:53:45;;;;;;;5.53;1.70;;;25.90;93.60;;;;;;5108361;28;20371;-76
2022/07/25 11:56:16;;;;;;;4.78;1.80;;;26.00;94.30;;;;;;5082475;28;20442;-74
2022/07/25 11:58:48;;;;;;;7.10;2.25;;;25.80;93.90;;;;;;5073661;28;20470;-75
2022/07/25 12:01:14;;;;;;;5.60;1.92;;;25.80;94.50;;;;;;5082783;28;20093;-72
2022/07/25 12:03:41;;;;;;;5.93;2.20;;;25.90;95.20;;;;;;5107353;28;20452;-74
2022/07/25 12:06:11;;;;;;;7.38;2.40;;;25.80;94.80;;;;;;5060291;28;20471;-75
2022/07/25 12:08:39;;;;;;;6.60;2.17;;;25.80;94.70;;;;;;5083502;28;20130;-74
2022/07/25 12:11:21;;;;;;;6.43;2.20;;;25.80;94.70;;;;;;5068368;28;20052;-77
2022/07/25 12:13:49;;;;;;;9.07;2.40;;;25.80;94.10;;;;;;5102302;28;20423;-74
2022/07/25 12:16:16;;;;;;;6.50;2.20;;;25.80;94.30;;;;;;5103411;28;20486;-73
2022/07/25 12:18:42;;;;;;;6.15;1.95;;;25.80;94.40;;;;;;5083692;28;20059;-75
2022/07/25 12:21:08;;;;;;;6.28;2.42;;;25.90;94.50;;;;;;5080466;28;20090;-73
2022/07/25 12:23:33;;;;;;;6.50;2.38;;;26.10;93.60;;;;;;5086263;28;20067;-74
2022/07/25 12:25:59;;;;;;;7.20;2.38;;;26.10;93.80;;;;;;5099464;28;20120;-75
2022/07/25 12:28:26;;;;;;;6.80;2.50;;;26.10;93.90;;;;;;5100933;28;20119;-75
2022/07/25 12:30:52;;;;;;;8.18;2.50;;;26.20;93.70;;;;;;5073282;28;20078;-77
2022/07/25 12:33:18;;;;;;;6.88;2.50;;;26.30;93.60;;;;;;5105441;28;20073;-76
2022/07/25 12:35:44;;;;;;;7.95;2.50;;;26.30;93.00;;;;;;5060606;28;20503;-77
2022/07/25 12:38:10;;;;;;;6.65;2.30;;;26.40;92.60;;;;;;5081109;28;20043;-79